createdAt,value
2023-04-04T00:00:22.318Z,-3.50
2023-04-04T00:02:49.607Z,-3.50
2023-04-04T00:05:17.010Z,-3.50
2023-04-04T00:07:47.304Z,-3.50
2023-04-04T00:10:14.547Z,-3.50
2023-04-04T00:12:42.243Z,-3.50
2023-04-04T00:15:09.619Z,-3.60
2023-04-04T00:17:36.418Z,-3.60
2023-04-04T00:20:04.365Z,-3.60
2023-04-04T00:22:31.572Z,-3.60
2023-04-04T00:24:59.151Z,-3.70
2023-04-04T00:27:26.293Z,-3.70
2023-04-04T00:29:53.428Z,-3.80
2023-04-04T00:32:20.659Z,-3.80
2023-04-04T00:34:53.005Z,-3.80
2023-04-04T00:37:19.794Z,-3.90
2023-04-04T00:39:47.682Z,-3.90
2023-04-04T00:42:14.453Z,-3.90
2023-04-04T00:44:41.430Z,-4.00
2023-04-04T00:47:08.231Z,-4.00
2023-04-04T00:49:35.014Z,-4.00
2023-04-04T00:52:02.244Z,-4.10
2023-04-04T00:54:30.556Z,-4.10
2023-04-04T00:56:58.229Z,-4.10
2023-04-04T00:59:27.823Z,-4.10
2023-04-04T01:01:55.124Z,-4.10
2023-04-04T01:04:22.462Z,-4.10
2023-04-04T01:06:50.930Z,-4.10
2023-04-04T01:09:18.504Z,-4.00
2023-04-04T01:11:45.611Z,-4.10
2023-04-04T01:14:12.515Z,-4.10
2023-04-04T01:16:41.133Z,-4.10
2023-04-04T01:19:14.167Z,-4.10
2023-04-04T01:21:43.134Z,-4.20
2023-04-04T01:24:13.290Z,-4.20
2023-04-04T01:26:40.042Z,-4.20
2023-04-04T01:29:06.851Z,-4.20
2023-04-04T01:31:43.459Z,-4.30
2023-04-04T01:34:48.346Z,-4.20
2023-04-04T01:37:35.087Z,-4.20
2023-04-04T01:40:17.148Z,-4.20
2023-04-04T01:42:45.696Z,-4.30
2023-04-04T01:45:12.601Z,-4.30
2023-04-04T01:47:43.340Z,-4.30
2023-04-04T01:50:11.773Z,-4.20
2023-04-04T01:52:38.852Z,-4.20
2023-04-04T01:55:06.030Z,-4.20
2023-04-04T01:57:32.848Z,-4.20
2023-04-04T01:59:59.608Z,-4.20
2023-04-04T02:02:27.129Z,-4.20
2023-04-04T02:04:53.977Z,-4.20
2023-04-04T02:07:20.753Z,-4.20
2023-04-04T02:09:47.601Z,-4.20
2023-04-04T02:12:14.498Z,-4.30
2023-04-04T02:14:41.313Z,-4.30
2023-04-04T02:17:08.075Z,-4.40
2023-04-04T02:19:35.588Z,-4.40
2023-04-04T02:22:02.675Z,-4.40
2023-04-04T02:24:29.476Z,-4.40
2023-04-04T02:26:56.268Z,-4.40
2023-04-04T02:29:23.535Z,-4.40
2023-04-04T02:31:50.462Z,-4.30
2023-04-04T02:34:17.373Z,-4.30
2023-04-04T02:36:44.166Z,-4.30
2023-04-04T02:39:11.074Z,-4.30
2023-04-04T02:41:37.836Z,-4.40
2023-04-04T02:44:04.549Z,-4.40
2023-04-04T02:46:31.286Z,-4.30
2023-04-04T02:48:58.095Z,-4.20
2023-04-04T02:51:24.850Z,-4.20
2023-04-04T02:53:51.618Z,-4.20
2023-04-04T02:56:18.398Z,-4.20
2023-04-04T02:58:45.651Z,-4.20
2023-04-04T03:01:12.632Z,-4.30
2023-04-04T03:03:39.642Z,-4.30
2023-04-04T03:06:06.579Z,-4.20
2023-04-04T03:08:34.982Z,-4.20
2023-04-04T03:11:02.667Z,-4.20
2023-04-04T03:13:29.478Z,-4.20
2023-04-04T03:16:04.581Z,-4.30
2023-04-04T03:18:31.581Z,-4.30
2023-04-04T03:20:58.396Z,-4.30
2023-04-04T03:23:25.227Z,-4.40
2023-04-04T03:25:51.979Z,-4.40
2023-04-04T03:28:18.694Z,-4.40
2023-04-04T03:30:45.627Z,-4.40
2023-04-04T03:33:12.414Z,-4.40
2023-04-04T03:35:39.861Z,-4.40
2023-04-04T03:38:07.450Z,-4.40
2023-04-04T03:40:34.283Z,-4.40
2023-04-04T03:43:02.394Z,-4.40
2023-04-04T03:45:32.639Z,-4.40
2023-04-04T03:47:59.476Z,-4.40
2023-04-04T03:50:26.498Z,-4.40
2023-04-04T03:52:53.321Z,-4.40
2023-04-04T03:55:20.088Z,-4.40
2023-04-04T03:57:47.111Z,-4.40
2023-04-04T04:00:14.323Z,-4.40
2023-04-04T04:02:41.278Z,-4.40
2023-04-04T04:05:09.248Z,-4.50
2023-04-04T04:07:36.082Z,-4.50
2023-04-04T04:10:03.306Z,-4.50
2023-04-04T04:12:30.069Z,-4.50
2023-04-04T04:14:56.854Z,-4.40
2023-04-04T04:17:23.672Z,-4.40
2023-04-04T04:19:50.470Z,-4.40
2023-04-04T04:22:17.221Z,-4.40
2023-04-04T04:24:43.977Z,-4.40
2023-04-04T04:27:10.964Z,-4.30
2023-04-04T04:29:37.758Z,-4.30
2023-04-04T04:32:04.570Z,-4.40
2023-04-04T04:34:31.637Z,-4.40
2023-04-04T04:36:58.427Z,-4.30
2023-04-04T04:39:25.181Z,-4.30
2023-04-04T04:41:51.945Z,-4.30
2023-04-04T04:44:18.742Z,-4.30
2023-04-04T04:46:45.486Z,-4.30
2023-04-04T04:49:12.508Z,-4.30
2023-04-04T04:51:39.354Z,-4.30
2023-04-04T04:54:06.171Z,-4.30
2023-04-04T04:56:32.958Z,-4.30
2023-04-04T04:58:59.764Z,-4.30
2023-04-04T05:01:26.801Z,-4.20
2023-04-04T05:03:53.709Z,-4.20
2023-04-04T05:06:20.703Z,-4.10
2023-04-04T05:08:47.623Z,-4.10
2023-04-04T05:11:14.391Z,-4.10
2023-04-04T05:13:41.227Z,-4.10
2023-04-04T05:16:07.994Z,-4.10
2023-04-04T05:18:34.784Z,-4.10
2023-04-04T05:21:01.506Z,-4.10
2023-04-04T05:23:28.322Z,-4.10
2023-04-04T05:25:55.118Z,-4.00
2023-04-04T05:28:23.749Z,-3.90
2023-04-04T05:30:50.778Z,-3.90
2023-04-04T05:33:17.584Z,-3.90
2023-04-04T05:35:44.390Z,-3.80
2023-04-04T05:38:11.317Z,-3.80
2023-04-04T05:40:38.340Z,-3.80
2023-04-04T05:43:05.347Z,-3.70
2023-04-04T05:45:32.100Z,-3.70
2023-04-04T05:47:58.907Z,-3.70
2023-04-04T05:50:25.996Z,-3.60
2023-04-04T05:52:55.956Z,-3.50
2023-04-04T05:55:23.129Z,-3.40
2023-04-04T05:57:50.826Z,-3.30
2023-04-04T06:00:19.498Z,-3.20
2023-04-04T06:02:46.409Z,-3.10
2023-04-04T06:05:13.159Z,-3.00
2023-04-04T06:07:39.929Z,-3.00
2023-04-04T06:10:08.022Z,-2.90
2023-04-04T06:12:34.811Z,-2.80
2023-04-04T06:15:01.612Z,-2.80
2023-04-04T06:17:28.425Z,-2.70
2023-04-04T06:19:55.597Z,-2.60
2023-04-04T06:22:22.355Z,-2.50
2023-04-04T06:24:49.145Z,-2.30
2023-04-04T06:27:16.012Z,-2.10
2023-04-04T06:29:42.825Z,-1.60
2023-04-04T06:32:09.672Z,-1.00
2023-04-04T06:34:36.412Z,-0.40
2023-04-04T06:37:03.531Z,0.00
2023-04-04T06:39:31.523Z,0.40
2023-04-04T06:41:58.318Z,1.00
2023-04-04T06:44:25.116Z,1.40
2023-04-04T06:46:52.050Z,2.00
2023-04-04T06:49:18.826Z,2.60
2023-04-04T06:51:46.491Z,3.30
2023-04-04T06:54:13.273Z,3.80
2023-04-04T06:56:40.054Z,4.20
2023-04-04T06:59:06.866Z,4.40
2023-04-04T07:01:34.383Z,4.60
2023-04-04T07:04:01.165Z,5.20
2023-04-04T07:06:29.719Z,5.70
2023-04-04T07:08:56.556Z,5.90
2023-04-04T07:11:27.038Z,6.20
2023-04-04T07:13:53.923Z,6.90
2023-04-04T07:16:21.108Z,7.50
2023-04-04T07:18:47.909Z,7.90
2023-04-04T07:21:14.727Z,8.10
2023-04-04T07:23:41.498Z,8.40
2023-04-04T07:26:08.296Z,8.10
2023-04-04T07:28:35.129Z,7.90
2023-04-04T07:31:02.119Z,8.30
2023-04-04T07:33:29.096Z,8.50
2023-04-04T07:35:55.912Z,8.20
2023-04-04T07:38:22.840Z,7.60
2023-04-04T07:40:50.570Z,7.80
2023-04-04T07:43:17.360Z,8.40
2023-04-04T07:45:44.407Z,8.50
2023-04-04T07:48:11.377Z,8.80
2023-04-04T07:50:38.568Z,9.40
2023-04-04T07:53:05.536Z,9.00
2023-04-04T07:55:32.268Z,8.70
2023-04-04T07:57:59.064Z,9.80
2023-04-04T08:00:26.517Z,9.80
2023-04-04T08:02:54.850Z,9.90
2023-04-04T08:05:21.832Z,10.20
2023-04-04T08:07:48.631Z,10.00
2023-04-04T08:10:17.789Z,10.50
2023-04-04T08:12:45.095Z,10.50
2023-04-04T08:15:12.330Z,10.50
2023-04-04T08:17:39.261Z,10.70
2023-04-04T08:20:06.899Z,10.80
2023-04-04T08:22:33.784Z,10.40
2023-04-04T08:25:00.781Z,10.70
2023-04-04T08:27:27.983Z,11.50
2023-04-04T08:29:54.821Z,10.80
2023-04-04T08:32:22.265Z,11.40
2023-04-04T08:34:49.787Z,11.20
2023-04-04T08:37:19.972Z,10.30
2023-04-04T08:39:46.769Z,9.90
2023-04-04T08:42:16.840Z,10.00
2023-04-04T08:44:45.811Z,10.40
2023-04-04T08:47:14.553Z,10.30
2023-04-04T08:49:46.646Z,10.50
2023-04-04T08:52:17.828Z,10.70
2023-04-04T08:54:46.279Z,10.00
2023-04-04T08:57:13.567Z,9.50
2023-04-04T08:59:40.529Z,9.70
2023-04-04T09:02:10.271Z,9.80
2023-04-04T09:04:37.882Z,10.10
2023-04-04T09:07:06.668Z,9.40
2023-04-04T09:09:34.262Z,9.40
2023-04-04T09:12:02.365Z,9.60
2023-04-04T09:14:30.886Z,9.90
2023-04-04T09:16:58.210Z,10.60
2023-04-04T09:19:26.375Z,10.60
2023-04-04T09:21:53.384Z,10.90
2023-04-04T09:24:20.278Z,11.00
2023-04-04T09:26:47.966Z,11.00
2023-04-04T09:29:17.484Z,11.10
2023-04-04T09:31:46.724Z,12.20
2023-04-04T09:34:14.900Z,12.30
2023-04-04T09:36:41.842Z,12.70
2023-04-04T09:39:09.168Z,11.80
2023-04-04T09:41:39.644Z,10.80
2023-04-04T09:44:09.870Z,10.40
2023-04-04T09:46:37.702Z,10.30
2023-04-04T09:49:04.781Z,9.70
2023-04-04T09:51:44.454Z,9.30
2023-04-04T09:54:18.752Z,9.30
2023-04-04T09:56:53.666Z,8.70
2023-04-04T09:59:20.678Z,8.50
2023-04-04T10:01:51.115Z,8.40
2023-04-04T10:04:19.089Z,8.20
2023-04-04T10:06:46.295Z,7.70
2023-04-04T10:09:13.474Z,8.20
2023-04-04T10:11:40.260Z,8.80
2023-04-04T10:14:09.320Z,9.60
2023-04-04T10:16:37.583Z,9.90
2023-04-04T10:19:08.380Z,9.90
2023-04-04T10:21:35.728Z,9.50
2023-04-04T10:24:09.267Z,10.20
2023-04-04T10:26:36.902Z,11.50
2023-04-04T10:29:05.883Z,12.40
2023-04-04T10:31:35.657Z,13.20
2023-04-04T10:34:28.984Z,13.30
2023-04-04T10:37:15.107Z,14.90
2023-04-04T10:39:42.664Z,16.40
2023-04-04T10:42:13.812Z,16.20
2023-04-04T10:44:41.765Z,15.40
2023-04-04T10:47:21.868Z,15.00
2023-04-04T10:49:50.668Z,15.50
2023-04-04T10:52:23.528Z,14.70
2023-04-04T10:54:59.621Z,14.30
2023-04-04T11:00:31.628Z,12.80
2023-04-04T11:03:02.711Z,11.90
2023-04-04T11:05:43.542Z,11.70
2023-04-04T11:08:14.009Z,11.90
2023-04-04T11:10:47.313Z,12.50
2023-04-04T11:13:18.308Z,13.30
2023-04-04T11:16:09.936Z,13.60
2023-04-04T11:18:42.516Z,12.60
2023-04-04T11:21:10.072Z,12.70
2023-04-04T11:23:49.167Z,12.80
2023-04-04T11:26:35.075Z,13.80
2023-04-04T11:29:03.620Z,13.20
2023-04-04T11:31:40.669Z,12.40
2023-04-04T11:34:09.418Z,11.60
2023-04-04T11:36:36.389Z,13.00
2023-04-04T11:39:28.267Z,12.70
2023-04-04T11:41:58.827Z,12.90
2023-04-04T11:44:30.590Z,13.90
2023-04-04T11:47:06.404Z,14.00
2023-04-04T11:49:45.523Z,13.70
2023-04-04T11:52:14.513Z,15.30
2023-04-04T11:54:43.624Z,15.60
2023-04-04T11:57:28.656Z,15.90
2023-04-04T11:59:55.734Z,15.70
2023-04-04T12:02:34.208Z,14.70
2023-04-04T12:05:01.497Z,13.40
2023-04-04T12:07:31.780Z,12.50
2023-04-04T12:09:58.711Z,11.90
2023-04-04T12:12:27.750Z,12.10
2023-04-04T12:14:58.070Z,11.70
2023-04-04T12:17:34.527Z,12.70
2023-04-04T12:20:01.352Z,12.50
2023-04-04T12:22:28.766Z,11.80
2023-04-04T12:24:58.152Z,10.90
2023-04-04T12:27:25.547Z,10.90
2023-04-04T12:29:52.837Z,12.20
2023-04-04T12:32:19.872Z,11.90
2023-04-04T12:34:49.948Z,11.40
2023-04-04T12:37:19.431Z,12.20
2023-04-04T12:39:50.857Z,13.20
2023-04-04T12:42:25.152Z,12.80
2023-04-04T12:44:53.806Z,12.10
2023-04-04T12:47:22.432Z,11.10
2023-04-04T12:49:49.955Z,10.20
2023-04-04T12:52:27.248Z,11.00
2023-04-04T12:55:06.596Z,12.90
2023-04-04T12:57:35.936Z,13.20
2023-04-04T13:00:06.606Z,12.00
2023-04-04T13:02:36.047Z,10.70
2023-04-04T13:05:04.032Z,11.20
2023-04-04T13:07:33.709Z,12.70
2023-04-04T13:10:05.549Z,12.70
2023-04-04T13:12:58.926Z,11.30
2023-04-04T13:15:51.563Z,11.20
2023-04-04T13:18:21.098Z,11.60
2023-04-04T13:20:52.707Z,11.80
2023-04-04T13:23:20.971Z,11.60
2023-04-04T13:25:47.886Z,10.90
2023-04-04T13:28:14.908Z,10.90
2023-04-04T13:30:46.798Z,10.60
2023-04-04T13:33:13.812Z,10.20
2023-04-04T13:35:44.161Z,9.60
2023-04-04T13:38:11.791Z,9.70
2023-04-04T13:40:38.672Z,10.10
2023-04-04T13:43:05.591Z,10.80
2023-04-04T13:45:35.851Z,10.80
2023-04-04T13:48:04.127Z,10.70
2023-04-04T13:50:33.041Z,11.40
2023-04-04T13:52:59.832Z,11.20
2023-04-04T13:55:27.568Z,11.50
2023-04-04T13:57:54.424Z,11.30
2023-04-04T14:00:21.525Z,11.00
2023-04-04T14:02:52.882Z,10.70
2023-04-04T14:05:21.262Z,10.20
2023-04-04T14:07:48.248Z,9.70
2023-04-04T14:10:15.110Z,9.40
2023-04-04T14:12:41.985Z,9.50
2023-04-04T14:15:09.528Z,10.30
2023-04-04T14:17:36.619Z,10.10
2023-04-04T14:20:04.272Z,10.00
2023-04-04T14:22:31.457Z,9.30
2023-04-04T14:24:58.173Z,10.20
2023-04-04T14:27:24.994Z,10.80
2023-04-04T14:29:51.785Z,10.60
2023-04-04T14:32:19.217Z,9.80
2023-04-04T14:34:46.005Z,9.90
2023-04-04T14:37:12.889Z,10.40
2023-04-04T14:39:39.689Z,11.40
2023-04-04T14:42:06.611Z,11.40
2023-04-04T14:44:33.833Z,11.40
2023-04-04T14:47:00.796Z,11.70
2023-04-04T14:49:27.889Z,11.30
2023-04-04T14:51:54.628Z,11.70
2023-04-04T14:54:21.604Z,12.10
2023-04-04T14:56:48.815Z,12.10
2023-04-04T14:59:15.782Z,12.40
2023-04-04T15:01:42.678Z,12.50
2023-04-04T15:04:10.734Z,13.00
2023-04-04T15:06:38.166Z,13.00
2023-04-04T15:09:06.153Z,13.10
2023-04-04T15:11:32.973Z,12.20
2023-04-04T15:13:59.745Z,12.20
2023-04-04T15:16:29.718Z,12.40
2023-04-04T15:18:56.484Z,12.20
2023-04-04T15:21:23.246Z,11.70
2023-04-04T15:23:50.032Z,12.20
2023-04-04T15:26:16.816Z,12.40
2023-04-04T15:28:43.566Z,12.60
2023-04-04T15:31:13.048Z,12.10
2023-04-04T15:33:40.530Z,12.00
2023-04-04T15:36:07.311Z,12.30
2023-04-04T15:38:34.064Z,12.80
2023-04-04T15:41:00.853Z,12.80
2023-04-04T15:43:27.863Z,12.70
2023-04-04T15:45:54.675Z,12.80
2023-04-04T15:48:21.497Z,12.70
2023-04-04T15:50:48.726Z,12.30
2023-04-04T15:53:15.657Z,12.30
2023-04-04T15:55:43.714Z,12.60
2023-04-04T15:58:10.495Z,12.60
2023-04-04T16:00:37.429Z,11.90
2023-04-04T16:03:04.401Z,11.40
2023-04-04T16:05:31.272Z,11.40
2023-04-04T16:07:58.034Z,11.20
2023-04-04T16:10:24.744Z,10.90
2023-04-04T16:12:51.626Z,11.00
2023-04-04T16:15:19.150Z,10.80
2023-04-04T16:17:47.056Z,10.70
2023-04-04T16:20:14.181Z,10.50
2023-04-04T16:22:40.988Z,10.40
2023-04-04T16:25:08.962Z,10.10
2023-04-04T16:27:36.807Z,10.00
2023-04-04T16:30:03.961Z,10.00
2023-04-04T16:32:31.863Z,9.60
2023-04-04T16:34:58.743Z,8.80
2023-04-04T16:37:25.612Z,8.60
2023-04-04T16:39:52.495Z,8.50
2023-04-04T16:42:19.560Z,8.30
2023-04-04T16:44:47.423Z,8.10
2023-04-04T16:47:14.473Z,7.90
2023-04-04T16:49:41.958Z,7.70
2023-04-04T16:52:10.647Z,7.50
2023-04-04T16:54:38.085Z,7.10
2023-04-04T16:57:04.831Z,6.90
2023-04-04T16:59:31.632Z,6.90
2023-04-04T17:01:58.450Z,6.80
2023-04-04T17:04:25.608Z,6.70
2023-04-04T17:06:52.442Z,6.60
2023-04-04T17:09:19.136Z,6.60
2023-04-04T17:11:46.948Z,6.50
2023-04-04T17:14:16.303Z,6.50
2023-04-04T17:16:43.602Z,6.40
2023-04-04T17:19:10.669Z,6.20
2023-04-04T17:21:37.466Z,6.00
2023-04-04T17:24:04.405Z,5.90
2023-04-04T17:26:31.204Z,5.90
2023-04-04T17:28:57.961Z,5.80
2023-04-04T17:31:24.826Z,5.70
2023-04-04T17:33:51.648Z,5.60
2023-04-04T17:36:19.046Z,5.50
2023-04-04T17:38:46.690Z,5.40
2023-04-04T17:41:13.673Z,5.30
2023-04-04T17:43:41.125Z,5.20
2023-04-04T17:46:09.324Z,5.10
2023-04-04T17:48:39.084Z,5.00
2023-04-04T17:51:07.827Z,5.00
2023-04-04T17:53:35.273Z,4.90
2023-04-04T17:56:01.993Z,4.80
2023-04-04T17:58:28.731Z,4.70
2023-04-04T18:00:57.425Z,4.60
2023-04-04T18:03:24.367Z,4.60
2023-04-04T18:05:52.833Z,4.50
2023-04-04T18:08:20.062Z,4.40
2023-04-04T18:10:47.050Z,4.30
2023-04-04T18:13:13.844Z,4.20
2023-04-04T18:15:41.245Z,4.10
2023-04-04T18:18:08.377Z,4.10
2023-04-04T18:20:36.541Z,4.00
2023-04-04T18:23:04.463Z,3.90
2023-04-04T18:25:32.372Z,3.90
2023-04-04T18:27:59.663Z,3.80
2023-04-04T18:30:26.706Z,3.70
2023-04-04T18:32:53.528Z,3.60
2023-04-04T18:35:20.339Z,3.50
2023-04-04T18:37:47.106Z,3.50
2023-04-04T18:40:14.196Z,3.40
2023-04-04T18:42:41.128Z,3.40
2023-04-04T18:45:08.271Z,3.30
2023-04-04T18:47:35.428Z,3.30
2023-04-04T18:50:03.022Z,3.20
2023-04-04T18:52:29.856Z,3.10
2023-04-04T18:54:56.609Z,3.00
2023-04-04T18:57:23.438Z,3.00
2023-04-04T18:59:50.315Z,2.90
2023-04-04T19:02:18.060Z,2.90
2023-04-04T19:04:47.318Z,2.80
2023-04-04T19:07:21.947Z,2.80
2023-04-04T19:09:50.193Z,2.70
2023-04-04T19:12:16.963Z,2.60
2023-04-04T19:14:43.666Z,2.40
2023-04-04T19:17:12.569Z,2.30
2023-04-04T19:19:39.323Z,2.20
2023-04-04T19:22:06.422Z,2.10
2023-04-04T19:24:33.181Z,2.00
2023-04-04T19:26:59.916Z,2.00
2023-04-04T19:29:26.661Z,1.90
2023-04-04T19:31:54.829Z,1.80
2023-04-04T19:34:22.011Z,1.70
2023-04-04T19:36:48.814Z,1.60
2023-04-04T19:39:19.994Z,1.60
2023-04-04T19:41:46.766Z,1.50
2023-04-04T19:44:20.940Z,1.40
2023-04-04T19:46:48.306Z,1.30
2023-04-04T19:49:16.640Z,1.30
2023-04-04T19:51:48.945Z,1.20
2023-04-04T19:54:16.121Z,1.20
2023-04-04T19:56:46.334Z,1.10
2023-04-04T19:59:39.266Z,1.00
2023-04-04T20:02:07.845Z,1.00
2023-04-04T20:04:34.609Z,1.00
2023-04-04T20:07:01.394Z,0.90
2023-04-04T20:09:37.059Z,0.90
2023-04-04T20:12:06.300Z,0.80
2023-04-04T20:14:33.042Z,0.70
2023-04-04T20:16:59.805Z,0.60
2023-04-04T20:19:28.330Z,0.40
2023-04-04T20:22:07.760Z,0.30
2023-04-04T20:24:34.685Z,0.20
2023-04-04T20:27:03.007Z,0.10
2023-04-04T20:29:34.640Z,0.10
2023-04-04T20:32:02.715Z,0.00
2023-04-04T20:34:41.139Z,0.00
2023-04-04T20:37:12.151Z,0.00
2023-04-04T20:39:47.900Z,0.00
2023-04-04T20:42:29.889Z,0.00
2023-04-04T20:45:06.341Z,0.00
2023-04-04T20:47:46.542Z,0.00
2023-04-04T20:50:16.719Z,-0.10
2023-04-04T20:52:47.550Z,-0.10
2023-04-04T20:55:14.295Z,-0.20
2023-04-04T20:57:41.209Z,-0.30
2023-04-04T21:00:23.516Z,-0.30
2023-04-04T21:02:50.379Z,-0.40
2023-04-04T21:05:35.498Z,-0.40
2023-04-04T21:08:08.420Z,-0.50
2023-04-04T21:10:48.121Z,-0.50
2023-04-04T21:13:15.324Z,-0.60
2023-04-04T21:15:42.185Z,-0.70
2023-04-04T21:18:11.733Z,-0.70
2023-04-04T21:20:47.590Z,-0.80
2023-04-04T21:23:26.302Z,-0.80
2023-04-04T21:26:04.014Z,-0.90
2023-04-04T21:28:34.795Z,-0.90
2023-04-04T21:31:08.931Z,-0.90
2023-04-04T21:33:38.085Z,-1.00
2023-04-04T21:36:07.789Z,-1.00
2023-04-04T21:38:35.259Z,-1.10
2023-04-04T21:41:17.782Z,-1.10
2023-04-04T21:43:44.533Z,-1.10
2023-04-04T21:46:11.462Z,-1.10
2023-04-04T21:48:38.425Z,-1.20
2023-04-04T21:51:05.667Z,-1.20
2023-04-04T21:53:32.409Z,-1.20
2023-04-04T21:55:59.210Z,-1.20
2023-04-04T21:58:26.192Z,-1.20
2023-04-04T22:00:52.973Z,-1.20
2023-04-04T22:03:19.672Z,-1.10
2023-04-04T22:05:47.527Z,-1.10
2023-04-04T22:08:14.461Z,-1.10
2023-04-04T22:10:49.946Z,-1.10
2023-04-04T22:13:18.642Z,-1.20
2023-04-04T22:15:47.047Z,-1.20
2023-04-04T22:18:17.377Z,-1.20
2023-04-04T22:20:46.192Z,-1.20
2023-04-04T22:23:15.362Z,-1.20
2023-04-04T22:25:42.466Z,-1.20
2023-04-04T22:28:09.766Z,-1.30
2023-04-04T22:30:39.253Z,-1.30
2023-04-04T22:33:06.325Z,-1.40
2023-04-04T22:35:33.532Z,-1.30
2023-04-04T22:38:01.570Z,-1.40
2023-04-04T22:40:28.843Z,-1.40
2023-04-04T22:42:56.043Z,-1.50
2023-04-04T22:45:23.536Z,-1.60
2023-04-04T22:47:50.509Z,-1.60
2023-04-04T22:50:24.887Z,-1.70
2023-04-04T22:52:54.574Z,-1.70
2023-04-04T22:55:24.736Z,-1.70
2023-04-04T22:57:51.576Z,-1.70
2023-04-04T23:00:18.895Z,-1.80
2023-04-04T23:02:47.265Z,-1.80
2023-04-04T23:05:16.057Z,-1.80
2023-04-04T23:07:44.830Z,-1.80
2023-04-04T23:10:14.093Z,-1.90
2023-04-04T23:12:41.104Z,-1.90
2023-04-04T23:15:13.304Z,-1.90
2023-04-04T23:17:40.591Z,-2.00
2023-04-04T23:20:10.503Z,-2.00
2023-04-04T23:22:38.056Z,-2.00
2023-04-04T23:25:06.497Z,-2.00
2023-04-04T23:27:34.165Z,-2.00
2023-04-04T23:30:04.369Z,-2.10
2023-04-04T23:32:32.150Z,-2.00
2023-04-04T23:34:59.211Z,-2.00
2023-04-04T23:37:26.083Z,-2.10
2023-04-04T23:39:52.883Z,-2.10
2023-04-04T23:42:19.599Z,-2.20
2023-04-04T23:44:46.371Z,-2.20
2023-04-04T23:47:13.672Z,-2.20
2023-04-04T23:49:40.624Z,-2.20
2023-04-04T23:52:07.418Z,-2.20
2023-04-04T23:54:34.232Z,-2.20
2023-04-04T23:57:01.259Z,-2.20
2023-04-04T23:59:28.086Z,-2.20
